createdAt,value
2022-09-03T00:01:25.286Z,101232.75
2022-09-03T00:06:50.698Z,101228.25
2022-09-03T00:12:15.820Z,101243.50
2022-09-03T00:17:43.845Z,101244.13
2022-09-03T00:23:11.503Z,101250.31
2022-09-03T00:28:43.481Z,101254.13
2022-09-03T00:34:16.644Z,101271.91
2022-09-03T00:39:40.129Z,101268.09
2022-09-03T00:45:15.425Z,101259.28
2022-09-03T00:50:54.076Z,101266.22
2022-09-03T00:56:24.146Z,101272.38
2022-09-03T01:01:52.955Z,101278.22
2022-09-03T01:07:32.795Z,101268.81
2022-09-03T01:13:09.134Z,101276.91
2022-09-03T01:18:42.201Z,101274.50
2022-09-03T01:24:17.805Z,101271.56
2022-09-03T01:29:49.721Z,101275.22
2022-09-03T01:35:24.305Z,101285.34
2022-09-03T01:41:24.626Z,101270.44
2022-09-03T01:47:00.692Z,101255.69
2022-09-03T01:52:39.453Z,101265.06
2022-09-03T01:58:12.486Z,101261.84
2022-09-03T02:03:41.250Z,101268.75
2022-09-03T02:09:04.180Z,101268.16
2022-09-03T02:14:32.948Z,101254.81
2022-09-03T02:19:56.349Z,101270.19
2022-09-03T02:25:30.013Z,101266.66
2022-09-03T02:30:54.563Z,101266.66
2022-09-03T02:36:27.646Z,101272.13
2022-09-03T02:42:04.052Z,101283.69
2022-09-03T02:47:34.407Z,101279.47
2022-09-03T02:53:02.659Z,101283.03
2022-09-03T02:58:32.854Z,101281.25
2022-09-03T03:04:01.784Z,101279.13
2022-09-03T03:09:32.344Z,101274.47
2022-09-03T03:14:55.756Z,101287.81
2022-09-03T03:20:17.951Z,101275.78
2022-09-03T03:25:48.610Z,101283.22
2022-09-03T03:31:12.431Z,101291.47
2022-09-03T03:36:38.466Z,101302.97
2022-09-03T03:42:02.745Z,101308.44
2022-09-03T03:47:28.901Z,101320.00
2022-09-03T03:53:00.760Z,101326.91
2022-09-03T03:58:32.281Z,101329.56
2022-09-03T04:03:56.627Z,101321.31
2022-09-03T04:09:19.620Z,101340.34
2022-09-03T04:14:50.597Z,101332.31
2022-09-03T04:20:13.511Z,101332.91
2022-09-03T04:25:42.535Z,101322.84
2022-09-03T04:31:13.503Z,101301.75
2022-09-03T04:36:38.130Z,101313.66
2022-09-03T04:42:07.019Z,101335.22
2022-09-03T04:47:32.130Z,101329.06
2022-09-03T04:53:05.842Z,101327.06
2022-09-03T04:58:37.016Z,101330.16
2022-09-03T05:04:05.471Z,101335.28
2022-09-03T05:09:28.537Z,101335.06
2022-09-03T05:14:54.829Z,101336.38
2022-09-03T05:20:26.068Z,101333.63
2022-09-03T05:25:58.400Z,101336.81
2022-09-03T05:31:28.327Z,101335.97
2022-09-03T05:36:53.159Z,101332.00
2022-09-03T05:42:22.202Z,101316.75
2022-09-03T05:47:46.906Z,101298.06
2022-09-03T05:53:18.414Z,101297.13
2022-09-03T05:58:48.185Z,101281.13
2022-09-03T06:04:17.165Z,101282.72
2022-09-03T06:09:47.399Z,101275.91
2022-09-03T06:15:16.250Z,101258.97
2022-09-03T06:20:38.896Z,101261.91
2022-09-03T06:26:06.770Z,101261.63
2022-09-03T06:31:30.173Z,101254.00
2022-09-03T06:36:56.655Z,101251.53
2022-09-03T06:42:24.374Z,101242.59
2022-09-03T06:47:47.780Z,101237.13
2022-09-03T06:53:16.900Z,101234.94
2022-09-03T06:58:45.140Z,101215.84
2022-09-03T07:04:16.393Z,101231.41
2022-09-03T07:09:45.148Z,101227.88
2022-09-03T07:15:12.642Z,101214.47
2022-09-03T07:20:36.461Z,101213.97
2022-09-03T07:26:03.150Z,101210.50
2022-09-03T07:31:32.125Z,101200.44
2022-09-03T07:36:56.347Z,101186.38
2022-09-03T07:42:20.869Z,101176.69
2022-09-03T07:47:51.112Z,101170.84
2022-09-03T07:53:15.133Z,101179.06
2022-09-03T07:58:42.427Z,101175.31
2022-09-03T08:04:09.715Z,101158.91
2022-09-03T08:09:39.317Z,101158.91
2022-09-03T08:15:08.749Z,101155.72
2022-09-03T08:20:37.891Z,101143.94
2022-09-03T08:26:07.339Z,101135.19
2022-09-03T08:31:34.658Z,101137.44
2022-09-03T08:37:01.527Z,101132.59
2022-09-03T08:42:34.072Z,101124.41
2022-09-03T08:48:02.365Z,101106.13
2022-09-03T08:53:31.388Z,101117.59
2022-09-03T08:59:01.852Z,101104.06
2022-09-03T09:04:32.521Z,101096.44
2022-09-03T09:10:00.329Z,101094.94
2022-09-03T09:15:31.808Z,101083.69
2022-09-03T09:20:59.212Z,101077.72
2022-09-03T09:26:23.659Z,101068.81
2022-09-03T09:31:49.510Z,101069.47
2022-09-03T09:37:19.193Z,101082.00
2022-09-03T09:42:44.346Z,101069.72
2022-09-03T09:48:24.290Z,101077.16
2022-09-03T09:53:47.920Z,101079.03
2022-09-03T09:59:12.985Z,101083.13
2022-09-03T10:04:40.628Z,101075.13
2022-09-03T10:10:05.762Z,101072.88
2022-09-03T10:15:33.801Z,101075.28
2022-09-03T10:21:06.334Z,101069.41
2022-09-03T10:26:32.370Z,101076.91
2022-09-03T10:32:04.937Z,101065.78
2022-09-03T10:37:41.098Z,101059.03
2022-09-03T10:43:15.909Z,101047.28
2022-09-03T10:48:54.297Z,101032.47
2022-09-03T10:54:32.118Z,101035.69
2022-09-03T11:00:07.150Z,101031.19
2022-09-03T11:05:37.130Z,101020.91
2022-09-03T11:11:09.139Z,101010.50
2022-09-03T11:16:33.606Z,101001.16
2022-09-03T11:21:57.997Z,100982.03
2022-09-03T11:27:27.913Z,100980.44
2022-09-03T11:32:55.949Z,100990.09
2022-09-03T11:38:27.471Z,100992.81
2022-09-03T11:43:51.438Z,100986.44
2022-09-03T11:49:15.131Z,100985.78
2022-09-03T11:54:45.922Z,100985.94
2022-09-03T12:00:18.204Z,100973.97
2022-09-03T12:05:45.506Z,100965.72
2022-09-03T12:11:24.720Z,100954.94
2022-09-03T12:16:59.032Z,100946.91
2022-09-03T12:22:28.841Z,100951.72
2022-09-03T12:27:55.754Z,100948.06
2022-09-03T12:33:19.926Z,100941.31
2022-09-03T12:39:10.801Z,100944.22
2022-09-03T12:44:41.208Z,100937.41
2022-09-03T12:50:11.481Z,100940.47
2022-09-03T12:55:44.773Z,100941.53
2022-09-03T13:01:16.773Z,100937.50
2022-09-03T13:06:49.960Z,100936.38
2022-09-03T13:12:24.512Z,100925.03
2022-09-03T13:18:06.547Z,100931.72
2022-09-03T13:23:37.459Z,100927.94
2022-09-03T13:29:15.517Z,100931.31
2022-09-03T13:34:50.480Z,100938.13
2022-09-03T13:40:17.566Z,100917.72
2022-09-03T13:45:42.569Z,100916.41
2022-09-03T13:51:15.833Z,100910.41
2022-09-03T13:56:54.731Z,100912.78
2022-09-03T14:02:28.232Z,100915.50
2022-09-03T14:08:07.634Z,100917.28
2022-09-03T14:13:40.182Z,100912.50
2022-09-03T14:19:07.227Z,100908.31
2022-09-03T14:24:41.681Z,100904.38
2022-09-03T14:30:19.431Z,100888.75
2022-09-03T14:35:50.852Z,100897.72
2022-09-03T14:41:37.421Z,100887.81
2022-09-03T14:47:12.130Z,100882.97
2022-09-03T14:52:58.376Z,100875.06
2022-09-03T14:58:38.113Z,100857.75
2022-09-03T15:04:19.961Z,100873.84
2022-09-03T15:09:46.385Z,100870.25
2022-09-03T15:15:19.763Z,100875.56
2022-09-03T15:20:49.907Z,100872.97
2022-09-03T15:26:31.310Z,100863.13
2022-09-03T15:32:05.128Z,100859.50
2022-09-03T15:37:38.397Z,100854.13
2022-09-03T15:43:09.841Z,100853.16
2022-09-03T15:48:45.444Z,100858.22
2022-09-03T15:54:18.519Z,100842.25
2022-09-03T15:59:52.385Z,100851.75
2022-09-03T16:05:20.603Z,100864.50
2022-09-03T16:10:51.074Z,100865.97
2022-09-03T16:16:22.871Z,100869.56
2022-09-03T16:22:00.452Z,100870.97
2022-09-03T16:27:31.829Z,100885.16
2022-09-03T16:33:06.809Z,100887.97
2022-09-03T16:38:39.211Z,100893.59
2022-09-03T16:44:07.225Z,100893.59
2022-09-03T16:49:42.151Z,100903.53
2022-09-03T16:55:18.895Z,100899.69
2022-09-03T17:00:55.740Z,100896.94
2022-09-03T17:06:29.338Z,100903.88
2022-09-03T17:12:07.413Z,100903.13
2022-09-03T17:17:45.166Z,100903.44
2022-09-03T17:23:14.494Z,100918.63
2022-09-03T17:28:52.575Z,100916.22
2022-09-03T17:34:27.442Z,100913.19
2022-09-03T17:40:05.198Z,100911.53
2022-09-03T17:45:42.857Z,100910.47
2022-09-03T17:51:16.543Z,100918.50
2022-09-03T17:56:49.241Z,100919.91
2022-09-03T18:02:25.266Z,100907.75
2022-09-03T18:08:00.299Z,100904.13
2022-09-03T18:13:30.892Z,100910.47
2022-09-03T18:19:04.810Z,100899.19
2022-09-03T18:24:51.966Z,100894.53
2022-09-03T18:30:44.436Z,100890.09
2022-09-03T18:36:30.378Z,100901.69
2022-09-03T18:42:18.143Z,100907.78
2022-09-03T18:48:15.289Z,100919.38
2022-09-03T18:54:11.660Z,100934.78
2022-09-03T19:00:04.969Z,100945.81
2022-09-03T19:05:53.397Z,100963.13
2022-09-03T19:11:41.332Z,100995.31
2022-09-03T19:17:33.147Z,101011.22
2022-09-03T19:23:17.217Z,101034.28
2022-09-03T19:29:06.590Z,101048.59
2022-09-03T19:35:05.265Z,101053.00
2022-09-03T19:40:56.723Z,101058.09
2022-09-03T19:46:44.802Z,101051.56
2022-09-03T19:52:37.278Z,101048.22
2022-09-03T19:58:41.456Z,101050.75
2022-09-03T20:04:25.334Z,101033.09
2022-09-03T20:10:13.741Z,101038.44
2022-09-03T20:15:49.692Z,101045.59
2022-09-03T20:21:22.965Z,101032.66
2022-09-03T20:26:49.735Z,101036.31
2022-09-03T20:32:27.443Z,101016.88
2022-09-03T20:37:56.193Z,100987.44
2022-09-03T20:43:38.838Z,100972.81
2022-09-03T20:49:14.067Z,100973.22
2022-09-03T20:54:42.539Z,100986.22
2022-09-03T21:00:08.326Z,100993.63
2022-09-03T21:05:42.251Z,100997.50
2022-09-03T21:11:15.956Z,101008.56
2022-09-03T21:16:49.237Z,101015.84
2022-09-03T21:22:25.265Z,101030.13
2022-09-03T21:27:59.039Z,101031.09
2022-09-03T21:33:24.908Z,101037.88
2022-09-03T21:38:49.237Z,101040.38
2022-09-03T21:44:16.515Z,101051.81
2022-09-03T21:49:50.662Z,101060.78
2022-09-03T21:55:23.799Z,101061.16
2022-09-03T22:00:56.861Z,101065.19
2022-09-03T22:06:26.002Z,101067.06
2022-09-03T22:11:59.432Z,101069.19
2022-09-03T22:17:36.786Z,101073.22
2022-09-03T22:23:12.110Z,101070.81
2022-09-03T22:28:43.823Z,101073.19
2022-09-03T22:34:15.585Z,101056.19
2022-09-03T22:39:40.614Z,101054.28
2022-09-03T22:45:19.515Z,101055.09
2022-09-03T22:50:48.757Z,101058.63
2022-09-03T22:56:21.995Z,101055.25
2022-09-03T23:01:57.860Z,101055.59
2022-09-03T23:07:31.596Z,101055.94
2022-09-03T23:13:04.941Z,101054.94
2022-09-03T23:18:33.555Z,101061.84
2022-09-03T23:24:03.637Z,101052.44
2022-09-03T23:29:35.872Z,101045.75
2022-09-03T23:35:00.600Z,101041.44
2022-09-03T23:40:38.885Z,101037.72
2022-09-03T23:46:14.593Z,101042.13
2022-09-03T23:51:51.037Z,101040.69
2022-09-03T23:57:22.730Z,101036.06
